Time;durP1;ratioP1;P1;durP2;ratioP2;P2;SDS_P1;SDS_P2;PMS_P1;PMS_P2;Temp;Humidity;BMP_temperature;BMP_pressure;BME280_temperature;BME280_humidity;BME280_pressure;Samples;Min_cycle;Max_cycle;Signal;HPM_P1;HPM_P2
2022/07/15 00:00:35;;;;;;;3.30;2.17;;;;;;;23.65;71.31;97686.47;5084856;28;20147;-94
2022/07/15 00:03:05;;;;;;;2.83;2.63;;;;;;;23.61;71.11;97685.97;5069510;28;20044;-94
2022/07/15 00:05:34;;;;;;;3.25;2.53;;;;;;;23.62;71.22;97681.44;5068129;28;20044;-94
2022/07/15 00:08:02;;;;;;;2.53;2.28;;;;;;;23.63;71.28;97689.31;5084865;28;20131;-94
2022/07/15 00:10:31;;;;;;;2.55;2.35;;;;;;;23.61;71.41;97683.28;5066086;28;20045;-93
2022/07/15 00:13:01;;;;;;;2.65;2.33;;;;;;;23.60;71.09;97683.50;5084888;28;20340;-95
2022/07/15 00:15:30;;;;;;;2.60;2.40;;;;;;;23.65;71.24;97686.47;5083678;28;20059;-93
2022/07/15 00:18:01;;;;;;;3.45;2.38;;;;;;;23.61;71.53;97669.84;5084775;28;20040;-95
2022/07/15 00:20:33;;;;;;;2.95;2.47;;;;;;;23.61;71.43;97677.91;5050473;28;20479;-95
2022/07/15 00:23:02;;;;;;;2.83;2.55;;;;;;;23.64;71.20;97690.16;5063635;28;20436;-95
2022/07/15 00:25:32;;;;;;;2.95;2.72;;;;;;;23.59;71.51;97681.81;5083619;28;20048;-94
2022/07/15 00:28:01;;;;;;;3.10;2.30;;;;;;;23.63;71.41;97689.31;5064955;28;20060;-94
2022/07/15 00:30:31;;;;;;;2.40;2.20;;;;;;;23.58;71.37;97681.00;5067668;28;20052;-95
2022/07/15 00:33:00;;;;;;;2.80;2.60;;;;;;;23.58;71.40;97691.75;5066099;28;20143;-94
2022/07/15 00:35:27;;;;;;;3.65;2.45;;;;;;;23.60;71.65;97686.19;5065751;28;20432;-94
2022/07/15 00:37:55;;;;;;;3.10;2.53;;;;;;;23.62;71.40;97700.25;5066239;28;20044;-94
2022/07/15 00:40:23;;;;;;;2.67;2.45;;;;;;;23.55;71.45;97689.41;5083035;28;20057;-93
2022/07/15 00:42:52;;;;;;;3.67;2.63;;;;;;;23.56;71.35;97701.81;5082320;28;20086;-93
2022/07/15 00:45:22;;;;;;;5.45;2.67;;;;;;;23.60;71.59;97707.66;5082977;28;20044;-93
2022/07/15 00:47:51;;;;;;;2.92;2.28;;;;;;;23.60;71.42;97699.63;5066969;28;20049;-94
2022/07/15 00:50:20;;;;;;;3.47;2.83;;;;;;;23.58;71.44;97694.44;5066670;28;20048;-94
2022/07/15 00:52:55;;;;;;;2.60;2.38;;;;;;;23.59;71.43;97703.28;5066444;28;20043;-95
2022/07/15 00:55:31;;;;;;;2.58;2.38;;;;;;;23.57;71.75;97706.16;5083263;28;20055;-94
2022/07/15 00:58:08;;;;;;;2.80;2.60;;;;;;;23.57;71.56;97691.94;5065576;28;20095;-95
2022/07/15 01:00:36;;;;;;;2.38;2.10;;;;;;;23.59;71.47;97703.28;5065946;28;20051;-94
2022/07/15 01:03:05;;;;;;;2.88;2.65;;;;;;;23.59;71.80;97695.25;5066968;28;20044;-94
2022/07/15 01:05:53;;;;;;;4.53;2.40;;;;;;;23.57;71.84;97697.28;5083911;28;20058;-93
2022/07/15 01:08:20;;;;;;;4.32;2.60;;;;;;;23.53;71.71;97696.00;5065297;28;20059;-94
2022/07/15 01:10:51;;;;;;;4.10;2.50;;;;;;;23.55;71.78;97693.94;5066389;28;20074;-94
2022/07/15 01:13:22;;;;;;;3.38;2.50;;;;;;;23.57;71.48;97699.97;5064608;28;20040;-94
2022/07/15 01:15:53;;;;;;;2.30;2.10;;;;;;;23.58;71.73;97698.94;5083389;28;20053;-95
2022/07/15 01:18:21;;;;;;;3.40;2.42;;;;;;;23.52;71.71;97687.09;5082517;28;20114;-95
2022/07/15 01:20:51;;;;;;;2.42;1.92;;;;;;;23.56;71.70;97709.03;5065807;28;20049;-94
2022/07/15 01:23:24;;;;;;;3.05;2.42;;;;;;;23.54;71.97;97701.19;5066341;28;20037;-94
2022/07/15 01:26:11;;;;;;;2.92;2.15;;;;;;;23.57;71.70;97710.72;5078538;28;20394;-94
2022/07/15 01:28:41;;;;;;;2.47;2.30;;;;;;;23.55;71.66;97707.38;5078323;28;20048;-94
2022/07/15 01:31:14;;;;;;;2.20;1.98;;;;;;;23.54;71.93;97708.41;5062849;28;20052;-93
2022/07/15 01:33:43;;;;;;;2.28;2.17;;;;;;;23.56;71.79;97717.09;5062180;28;20044;-95
2022/07/15 01:36:14;;;;;;;2.60;2.40;;;;;;;23.55;71.85;97715.44;5066327;28;20041;-93
2022/07/15 01:38:48;;;;;;;2.50;2.28;;;;;;;23.55;71.83;97716.28;5065739;28;20060;-96
2022/07/15 01:41:16;;;;;;;2.92;2.50;;;;;;;23.55;71.99;97724.34;5080367;28;20048;-94
2022/07/15 01:43:44;;;;;;;3.03;2.30;;;;;;;23.54;71.79;97711.09;5064343;28;20052;-93
2022/07/15 01:46:17;;;;;;;2.53;2.33;;;;;;;23.53;71.85;97720.19;5079317;28;20139;-94
2022/07/15 01:51:43;;;;;;;2.30;2.00;;;;;;;23.49;71.72;97713.53;5065055;28;20044;-94
2022/07/15 01:54:12;;;;;;;1.98;1.80;;;;;;;23.52;71.90;97719.34;5082870;28;20060;-93
2022/07/15 01:56:42;;;;;;;3.05;2.03;;;;;;;23.53;72.12;97717.50;5066335;28;20036;-93
2022/07/15 01:59:11;;;;;;;2.70;2.50;;;;;;;23.50;71.82;97716.00;5064757;28;20037;-93
2022/07/15 02:01:39;;;;;;;2.53;2.33;;;;;;;23.54;72.12;97727.22;5063107;28;20143;-94
2022/07/15 02:04:13;;;;;;;2.25;2.13;;;;;;;23.52;71.77;97729.22;5045537;28;20447;-93
2022/07/15 02:06:42;;;;;;;2.40;2.20;;;;;;;23.53;72.00;97734.41;5077152;28;20076;-95
2022/07/15 02:09:11;;;;;;;2.63;2.42;;;;;;;23.49;72.17;97737.69;5082177;28;20116;-93
2022/07/15 02:11:43;;;;;;;2.63;2.42;;;;;;;23.52;72.06;97743.50;5084596;28;20419;-94
2022/07/15 02:14:12;;;;;;;2.42;2.22;;;;;;;23.47;71.92;97737.88;5065697;28;20072;-94
2022/07/15 02:16:41;;;;;;;2.58;2.20;;;;;;;23.51;71.82;97746.38;5065516;28;20106;-93
2022/07/15 02:19:13;;;;;;;;;;;;;;;23.52;72.13;97756.94;5063870;28;20040;-95
2022/07/15 02:21:42;;;;;;;1.92;1.83;;;;;;;23.50;71.75;97758.97;5081202;28;20026;-94
2022/07/15 02:24:10;;;;;;;2.38;2.17;;;;;;;23.52;72.07;97759.63;5066532;28;20142;-94
2022/07/15 02:26:38;;;;;;;2.30;2.10;;;;;;;23.50;72.34;97760.81;5081521;28;20049;-94
2022/07/15 02:29:06;;;;;;;2.00;1.90;;;;;;;23.52;72.06;97769.50;5048711;28;20496;-94
2022/07/15 02:31:34;;;;;;;3.20;2.10;;;;;;;23.50;72.27;97758.97;5061936;28;20097;-94
2022/07/15 02:34:02;;;;;;;2.78;2.10;;;;;;;23.51;72.31;97765.19;5078812;28;20431;-94
2022/07/15 02:36:30;;;;;;;2.03;1.80;;;;;;;23.51;72.25;97760.66;5062762;28;20044;-95
2022/07/15 02:38:59;;;;;;;2.10;1.90;;;;;;;23.46;72.31;97746.94;5063948;28;20098;-93
2022/07/15 02:41:27;;;;;;;2.30;2.10;;;;;;;23.47;72.15;97745.09;5064190;28;20044;-95
2022/07/15 02:43:55;;;;;;;2.45;2.25;;;;;;;23.47;72.13;97745.94;5064813;28;20048;-96
2022/07/15 02:46:24;;;;;;;2.63;2.25;;;;;;;23.47;72.12;97742.41;5068241;28;20071;-94
2022/07/15 02:48:53;;;;;;;1.88;1.77;;;;;;;23.50;72.33;97750.09;5069036;28;20049;-94
2022/07/15 02:51:22;;;;;;;2.75;2.03;;;;;;;23.49;72.16;97741.19;5068813;28;20044;-94
2022/07/15 02:53:49;;;;;;;5.00;2.30;;;;;;;23.49;72.39;97746.56;5069328;28;20045;-94
2022/07/15 02:56:23;;;;;;;7.50;3.50;;;;;;;23.47;72.11;97737.03;5069528;28;20139;-95
2022/07/15 02:58:51;;;;;;;1.95;1.75;;;;;;;23.46;72.28;97730.00;5069119;28;20056;-94
2022/07/15 03:01:19;;;;;;;1.90;1.80;;;;;;;23.48;72.09;97736.00;5067521;28;20048;-95
2022/07/15 03:03:49;;;;;;;2.03;1.88;;;;;;;23.46;72.33;97744.25;5065861;28;20099;-95
2022/07/15 03:06:21;;;;;;;2.20;2.00;;;;;;;23.50;72.11;97755.47;5065007;28;20379;-95
2022/07/15 03:08:50;;;;;;;2.03;1.92;;;;;;;23.48;72.10;97785.19;5084170;28;20377;-94
2022/07/15 03:11:20;;;;;;;1.95;1.80;;;;;;;23.48;72.07;97803.13;5103031;28;20106;-95
2022/07/15 03:13:51;;;;;;;2.22;2.03;;;;;;;23.47;72.17;97809.53;5070539;28;20052;-95
2022/07/15 03:16:20;;;;;;;2.20;2.05;;;;;;;23.47;72.30;97814.91;5085510;28;20140;-95
2022/07/15 03:18:52;;;;;;;2.93;1.90;;;;;;;23.45;72.27;97807.03;5071597;28;20049;-96
2022/07/15 03:21:22;;;;;;;3.05;1.80;;;;;;;23.49;72.29;97824.44;5073177;28;20104;-93
2022/07/15 03:23:51;;;;;;;1.77;1.67;;;;;;;23.46;72.17;97822.13;5090883;28;20045;-95
2022/07/15 03:26:19;;;;;;;1.70;1.60;;;;;;;23.47;72.39;97831.84;5073253;28;20052;-96
2022/07/15 03:28:51;;;;;;;4.35;1.90;;;;;;;23.46;72.26;97829.34;5072956;28;20410;-94
2022/07/15 03:31:26;;;;;;;2.40;2.20;;;;;;;23.47;72.26;97836.38;5090159;28;20067;-96
2022/07/15 03:34:00;;;;;;;1.90;1.70;;;;;;;23.47;72.25;97844.44;5073642;28;20047;-94
2022/07/15 03:36:30;;;;;;;1.63;1.52;;;;;;;23.46;72.39;97846.28;5073167;28;20068;-95
2022/07/15 03:38:58;;;;;;;2.50;2.30;;;;;;;23.51;72.10;97856.47;5071609;28;20041;-96
2022/07/15 03:41:27;;;;;;;2.42;2.15;;;;;;;23.48;72.33;97860.38;5072043;28;20048;-93
2022/07/15 03:43:57;;;;;;;2.25;2.05;;;;;;;23.49;72.28;97863.91;5072570;28;20048;-95
2022/07/15 03:46:25;;;;;;;2.92;2.08;;;;;;;23.51;72.25;97867.22;5071456;28;20041;-94
2022/07/15 03:48:58;;;;;;;2.05;1.95;;;;;;;23.49;72.12;97866.59;5071874;28;20051;-94
2022/07/15 03:51:30;;;;;;;4.05;2.22;;;;;;;23.48;72.27;97870.28;5088007;28;20048;-95
2022/07/15 03:53:59;;;;;;;2.42;2.22;;;;;;;23.50;72.41;97865.56;5072468;28;20048;-95
2022/07/15 03:56:28;;;;;;;1.92;1.80;;;;;;;23.49;72.55;97871.97;5071799;28;20050;-94
2022/07/15 03:58:58;;;;;;;1.90;1.80;;;;;;;23.49;72.37;97874.66;5071848;28;20052;-94
2022/07/15 04:01:26;;;;;;;2.60;2.40;;;;;;;23.47;72.25;97872.16;5071945;28;20044;-95
2022/07/15 04:03:58;;;;;;;2.40;2.20;;;;;;;23.46;72.24;97877.69;5088781;28;20071;-96
2022/07/15 04:06:26;;;;;;;1.75;1.65;;;;;;;23.52;72.40;97887.69;5071870;28;20044;-94
2022/07/15 04:08:55;;;;;;;1.95;1.85;;;;;;;23.50;72.32;97890.56;5088639;28;20068;-93
2022/07/15 04:11:25;;;;;;;4.70;2.13;;;;;;;23.49;72.54;97893.44;5089079;28;20044;-94
2022/07/15 04:13:53;;;;;;;1.85;1.75;;;;;;;23.51;72.37;97900.31;5072151;28;20082;-94
2022/07/15 04:16:23;;;;;;;1.83;1.63;;;;;;;23.47;72.67;97890.94;5072134;28;20048;-95
2022/07/15 04:18:52;;;;;;;1.88;1.75;;;;;;;23.47;72.64;97900.84;5072118;28;20056;-94
2022/07/15 04:21:23;;;;;;;2.15;1.98;;;;;;;23.52;72.24;97912.72;5070772;28;20051;-94
2022/07/15 04:23:50;;;;;;;3.55;2.00;;;;;;;23.48;72.52;97903.34;5070412;28;20052;-94
2022/07/15 04:26:18;;;;;;;2.88;1.90;;;;;;;23.51;72.65;97902.16;5071063;28;20040;-94
2022/07/15 04:28:46;;;;;;;2.10;2.00;;;;;;;23.54;72.30;97912.53;5071343;28;20044;-95
2022/07/15 04:31:14;;;;;;;2.17;2.05;;;;;;;23.50;72.44;97913.91;5071817;28;20121;-93
2022/07/15 04:33:57;;;;;;;2.20;2.00;;;;;;;23.49;72.31;97915.75;5071170;28;20074;-95
2022/07/15 04:36:25;;;;;;;1.90;1.80;;;;;;;23.51;72.59;97918.25;5103378;28;20063;-94
2022/07/15 04:38:53;;;;;;;2.20;1.98;;;;;;;23.47;72.72;97914.28;5070738;28;20045;-94
2022/07/15 04:41:22;;;;;;;2.17;1.80;;;;;;;23.50;72.52;97921.97;5071093;28;20047;-94
2022/07/15 04:43:51;;;;;;;2.65;1.65;;;;;;;23.52;72.44;97930.66;5071092;28;20072;-94
2022/07/15 04:46:23;;;;;;;1.40;1.30;;;;;;;23.47;72.67;97916.94;5054972;28;20124;-95
2022/07/15 04:51:49;;;;;;;1.67;1.58;;;;;;;23.51;72.75;97935.22;5071104;28;20040;-95
2022/07/15 04:54:18;;;;;;;5.30;2.08;;;;;;;23.47;72.44;97933.91;5071281;28;20056;-95
2022/07/15 04:56:49;;;;;;;1.58;1.48;;;;;;;23.49;72.71;97936.41;5088511;28;20044;-94
2022/07/15 04:59:17;;;;;;;1.90;1.80;;;;;;;23.52;72.48;97941.41;5088089;28;20098;-93
2022/07/15 05:01:45;;;;;;;1.88;1.55;;;;;;;23.54;72.37;97939.38;5087770;28;20040;-94
2022/07/15 05:04:18;;;;;;;2.27;1.70;;;;;;;23.54;72.43;97945.59;5071171;28;20044;-94
2022/07/15 05:06:48;;;;;;;2.00;1.80;;;;;;;23.52;72.52;97950.31;5069782;28;20295;-94
2022/07/15 05:09:19;;;;;;;2.60;1.70;;;;;;;23.55;72.39;97957.16;5087686;28;20098;-94
2022/07/15 05:11:49;;;;;;;1.45;1.40;;;;;;;23.52;72.55;97952.16;5070085;28;20041;-94
2022/07/15 05:14:19;;;;;;;1.85;1.70;;;;;;;23.51;72.65;97953.16;5087511;28;20062;-94
2022/07/15 05:16:48;;;;;;;1.70;1.60;;;;;;;23.51;72.50;97950.47;5070293;28;20052;-95
2022/07/15 05:19:16;;;;;;;2.10;1.77;;;;;;;23.54;72.46;97961.72;5070315;28;20079;-95
2022/07/15 05:21:46;;;;;;;1.55;1.45;;;;;;;23.52;72.69;97962.88;5070003;28;20053;-94
2022/07/15 05:24:14;;;;;;;1.92;1.70;;;;;;;23.55;72.43;97965.22;5070230;28;20041;-94
2022/07/15 05:27:08;;;;;;;1.80;1.70;;;;;;;23.55;72.27;97970.59;5069777;28;20071;-94
2022/07/15 05:29:38;;;;;;;3.05;2.00;;;;;;;23.51;72.44;97969.28;5050082;28;20080;-94
2022/07/15 05:32:06;;;;;;;1.38;1.38;;;;;;;23.52;72.39;97965.56;5050277;28;20328;-94
2022/07/15 05:34:35;;;;;;;3.20;1.88;;;;;;;23.52;72.21;97973.63;5050886;28;20041;-94
2022/07/15 05:37:30;;;;;;;1.70;1.60;;;;;;;23.52;72.35;97976.31;5035085;28;20049;-94
2022/07/15 05:39:59;;;;;;;1.65;1.55;;;;;;;23.55;72.17;97984.03;5084676;28;20041;-95
2022/07/15 05:42:34;;;;;;;1.90;1.60;;;;;;;23.52;72.52;97981.69;5051258;28;20053;-95
2022/07/15 05:45:02;;;;;;;2.15;1.95;;;;;;;23.51;72.35;97980.88;5050943;28;20071;-94
2022/07/15 05:47:31;;;;;;;1.92;1.77;;;;;;;23.55;72.46;97984.03;5050539;28;20427;-95
2022/07/15 05:49:59;;;;;;;4.25;1.60;;;;;;;23.54;72.40;97987.72;5049018;28;20048;-95
2022/07/15 05:52:44;;;;;;;3.35;2.30;;;;;;;23.54;72.63;97988.56;5067765;28;20052;-94
2022/07/15 05:55:13;;;;;;;;;;;;;;;23.58;72.60;98003.31;5072995;28;20052;-95
2022/07/15 05:57:41;;;;;;;1.50;1.40;;;;;;;23.54;72.44;97995.78;5069322;28;19929;-94
2022/07/15 06:00:10;;;;;;;1.50;1.40;;;;;;;23.54;72.36;98004.69;5065378;28;20135;-93
2022/07/15 06:02:44;;;;;;;1.45;1.35;;;;;;;23.56;72.17;98007.16;5070453;28;20139;-94
2022/07/15 06:05:23;;;;;;;1.55;1.45;;;;;;;23.60;72.62;98009.31;5062916;28;20044;-93
2022/07/15 06:07:56;;;;;;;1.92;1.40;;;;;;;23.57;72.54;98016.91;5080466;28;20044;-94
2022/07/15 06:10:29;;;;;;;1.73;1.63;;;;;;;23.57;72.44;98017.72;5059851;28;20143;-93
2022/07/15 06:12:58;;;;;;;1.95;1.40;;;;;;;23.59;72.29;98017.56;5064972;28;20136;-94
2022/07/15 06:15:26;;;;;;;4.70;1.67;;;;;;;23.63;72.57;98024.25;5081597;28;20667;-93
2022/07/15 06:17:54;;;;;;;3.08;1.65;;;;;;;23.63;72.45;98029.63;5082369;28;20040;-95
2022/07/15 06:20:24;;;;;;;1.50;1.40;;;;;;;23.60;72.83;98030.00;5068124;28;20044;-94
2022/07/15 06:22:52;;;;;;;3.92;1.70;;;;;;;23.62;72.51;98039.53;5070300;28;20318;-94
2022/07/15 06:25:27;;;;;;;1.40;1.30;;;;;;;23.64;72.81;98047.44;5072403;28;20094;-94
2022/07/15 06:27:55;;;;;;;2.80;1.70;;;;;;;23.61;72.71;98042.41;5070539;28;20033;-94
2022/07/15 06:30:23;;;;;;;4.28;1.85;;;;;;;23.61;71.26;98039.72;5068548;28;20045;-95
2022/07/15 06:32:50;;;;;;;1.50;1.40;;;;;;;23.58;70.06;98042.75;5082636;28;20076;-95
2022/07/15 06:35:18;;;;;;;6.50;1.73;;;;;;;23.57;66.44;98041.91;5070610;28;20040;-94
2022/07/15 06:37:46;;;;;;;3.75;1.75;;;;;;;23.49;62.23;98046.53;5068503;28;20095;-94
2022/07/15 06:46:00;;;;;;;12.73;2.13;;;;;;;23.30;60.11;98060.41;5047550;28;20045;-93
2022/07/15 06:48:29;;;;;;;4.82;1.83;;;;;;;23.35;60.92;98053.47;5034716;28;20061;-94
2022/07/15 06:51:04;;;;;;;7.85;1.60;;;;;;;23.42;61.23;98059.00;5052595;28;20054;-94
2022/07/15 06:53:40;;;;;;;15.27;1.92;;;;;;;23.47;61.42;98061.97;5049641;28;20107;-95
2022/07/15 06:56:15;;;;;;;16.33;3.42;;;;;;;23.50;62.29;98064.31;5022643;28;20093;-93
2022/07/15 06:58:44;;;;;;;16.30;2.13;;;;;;;23.55;62.38;98070.81;5014989;28;20042;-93
2022/07/15 07:01:19;;;;;;;16.65;2.42;;;;;;;23.58;62.85;98075.84;5013710;28;20049;-95
2022/07/15 07:03:47;;;;;;;14.13;2.75;;;;;;;23.59;63.09;98065.91;5013313;28;20141;-93
2022/07/15 07:06:15;;;;;;;13.63;2.05;;;;;;;23.63;63.20;98067.22;5014513;28;20365;-95
2022/07/15 07:08:46;;;;;;;18.65;2.00;;;;;;;23.61;63.31;98075.44;5030699;28;20073;-93
2022/07/15 07:11:14;;;;;;;14.70;1.52;;;;;;;23.63;63.19;98083.34;5014399;28;20049;-94
2022/07/15 07:13:42;;;;;;;12.57;2.05;;;;;;;23.61;63.31;98072.78;5015699;28;20104;-94
2022/07/15 07:16:10;;;;;;;13.82;2.17;;;;;;;23.64;63.22;98079.66;5018015;28;20045;-94
2022/07/15 07:18:52;;;;;;;15.30;2.50;;;;;;;23.61;63.52;98085.38;5015386;28;20054;-94
2022/07/15 07:21:20;;;;;;;14.15;3.17;;;;;;;23.66;63.54;98085.72;5015067;28;20041;-95
2022/07/15 07:23:48;;;;;;;6.60;2.35;;;;;;;23.64;63.89;98085.03;5048919;28;20045;-93
2022/07/15 07:26:17;;;;;;;9.52;2.47;;;;;;;23.61;63.81;98080.00;5033878;28;20053;-95
2022/07/15 07:28:45;;;;;;;15.30;2.00;;;;;;;23.62;64.22;98095.94;5032817;28;20045;-93
2022/07/15 07:31:14;;;;;;;11.07;2.03;;;;;;;23.66;64.28;98107.19;5032702;28;20042;-94
2022/07/15 07:33:44;;;;;;;6.35;1.77;;;;;;;23.65;64.30;98102.84;5032443;28;20045;-94
2022/07/15 07:36:15;;;;;;;7.70;2.25;;;;;;;23.63;64.34;98107.50;5035222;28;20061;-95
2022/07/15 07:38:43;;;;;;;11.37;1.90;;;;;;;23.62;64.32;98105.84;4927857;28;738132;-94
2022/07/15 07:41:11;;;;;;;6.82;1.73;;;;;;;23.66;64.31;98117.13;4852848;28;833666;-95
2022/07/15 07:43:39;;;;;;;9.82;2.40;;;;;;;23.67;64.44;98110.72;4993324;28;20053;-93
2022/07/15 07:46:14;;;;;;;8.23;2.38;;;;;;;23.64;64.63;98115.41;4988760;28;20051;-94
2022/07/15 07:48:44;;;;;;;6.97;1.70;;;;;;;23.66;64.85;98123.31;4975369;28;20186;-95
2022/07/15 07:51:13;;;;;;;7.18;1.90;;;;;;;23.64;64.93;98107.34;5004635;28;20055;-94
2022/07/15 07:56:52;;;;;;;5.10;1.42;;;;;;;23.62;65.20;98116.59;4994622;28;20050;-94
2022/07/15 07:59:22;;;;;;;4.97;2.00;;;;;;;23.62;65.15;98119.28;4990633;28;20050;-94
2022/07/15 08:01:50;;;;;;;3.30;1.40;;;;;;;23.62;65.09;98120.13;4987875;28;20046;-93
2022/07/15 08:04:25;;;;;;;7.20;2.40;;;;;;;23.70;65.31;98132.69;5001795;28;20047;-93
2022/07/15 08:06:55;;;;;;;9.32;2.15;;;;;;;23.69;65.20;98125.66;4984882;28;20119;-95
2022/07/15 08:09:30;;;;;;;6.45;2.60;;;;;;;23.73;65.63;98142.25;4983642;28;20049;-94
2022/07/15 08:11:58;;;;;;;9.60;2.65;;;;;;;23.75;65.91;98149.13;5000675;28;20429;-93
2022/07/15 08:19:32;;;;;;;4.90;1.23;;;;;;;21.27;55.00;98112.75;5046377;28;227543;-63
2022/07/15 08:21:59;;;;;;;2.30;1.02;;;;;;;19.78;55.54;98116.81;4870900;28;83891;-64
2022/07/15 08:25:41;;;;;;;3.42;1.25;;;;;;;19.32;57.47;98128.53;5063898;27;20397;-66
2022/07/15 08:28:08;;;;;;;4.53;0.82;;;;;;;18.87;56.33;98126.81;5038876;28;73719;-63
2022/07/15 08:30:36;;;;;;;1.52;0.88;;;;;;;18.64;57.40;98126.34;5050864;28;20041;-65
2022/07/15 08:33:04;;;;;;;1.65;0.60;;;;;;;18.50;58.13;98125.97;5051551;28;20049;-64
2022/07/15 08:35:32;;;;;;;2.67;0.75;;;;;;;18.71;57.75;98129.25;5051274;28;20045;-64
2022/07/15 08:37:59;;;;;;;1.77;0.82;;;;;;;19.09;57.17;98129.09;5051014;28;20053;-64
2022/07/15 08:40:27;;;;;;;4.00;0.80;;;;;;;18.98;56.26;98127.44;5059309;28;20332;-64
2022/07/15 08:42:56;;;;;;;3.40;1.20;;;;;;;18.56;57.51;98130.69;5072754;28;20049;-64
2022/07/15 08:45:24;;;;;;;2.42;0.88;;;;;;;18.48;58.71;98128.78;5072672;28;20037;-63
2022/07/15 08:47:53;;;;;;;2.67;0.85;;;;;;;18.57;58.42;98127.88;5073941;28;20048;-64
2022/07/15 08:50:22;;;;;;;1.17;1.05;;;;;;;18.30;58.15;98132.31;5073712;28;20045;-64
2022/07/15 08:52:51;;;;;;;3.50;0.90;;;;;;;18.36;57.81;98135.25;5073544;28;20071;-64
2022/07/15 08:55:18;;;;;;;2.47;0.82;;;;;;;18.54;58.36;98130.84;5073716;28;20344;-64
2022/07/15 08:57:47;;;;;;;2.65;0.73;;;;;;;18.39;57.04;98136.78;5073661;28;20051;-64
2022/07/15 09:00:16;;;;;;;2.15;0.55;;;;;;;18.39;56.64;98132.28;5073242;28;20064;-65
2022/07/15 09:02:44;;;;;;;1.85;0.98;;;;;;;18.48;57.07;98141.25;5071907;28;20037;-64
2022/07/15 09:05:24;;;;;;;3.45;1.00;;;;;;;18.65;56.79;98122.69;5071310;28;20383;-64
2022/07/15 09:07:54;;;;;;;2.13;1.50;;;;;;;18.65;55.89;98132.53;5071234;28;20037;-62
2022/07/15 09:10:22;;;;;;;1.02;0.63;;;;;;;18.75;54.90;98144.00;5071353;28;20041;-62
2022/07/15 09:12:51;;;;;;;1.33;0.70;;;;;;;18.86;55.82;98139.31;5071848;28;20459;-62
2022/07/15 09:15:36;;;;;;;3.42;1.30;;;;;;;18.95;54.82;98138.44;5071923;28;20037;-62
2022/07/15 09:18:06;;;;;;;7.63;1.00;;;;;;;18.78;53.40;98141.88;5072680;28;20053;-62
2022/07/15 09:20:35;;;;;;;7.00;1.55;;;;;;;19.10;57.51;98138.78;5073080;28;20072;-63
2022/07/15 09:23:03;;;;;;;0.95;0.55;;;;;;;19.37;54.60;98136.91;5072940;28;20087;-63
2022/07/15 09:25:33;;;;;;;3.15;0.55;;;;;;;19.13;54.02;98146.47;5072607;28;20053;-62
2022/07/15 09:28:02;;;;;;;2.85;0.73;;;;;;;19.10;54.66;98144.97;5072943;28;20309;-62
2022/07/15 09:33:35;;;;;;;1.33;0.68;;;;;;;19.65;55.50;98141.25;5071672;28;20045;-61
2022/07/15 09:36:12;;;;;;;2.03;0.43;;;;;;;19.20;53.98;98140.38;5051627;28;20041;-62
2022/07/15 09:38:43;;;;;;;3.35;1.35;;;;;;;18.99;53.47;98138.97;5056981;28;20102;-62
2022/07/15 09:41:14;;;;;;;0.63;0.63;;;;;;;18.95;53.13;98137.59;5056579;28;20041;-62
2022/07/15 09:43:51;;;;;;;6.30;1.17;;;;;;;19.10;52.98;98142.28;5057491;28;20066;-62
2022/07/15 09:46:22;;;;;;;1.23;0.40;;;;;;;19.41;54.51;98133.00;5051687;28;20047;-62
2022/07/15 09:48:53;;;;;;;1.15;0.63;;;;;;;19.55;53.19;98123.63;5057212;28;20044;-62
2022/07/15 09:51:22;;;;;;;1.05;0.32;;;;;;;19.72;52.79;98128.94;5056446;28;20045;-63
2022/07/15 09:53:50;;;;;;;1.70;0.68;;;;;;;19.77;51.58;98129.34;5057390;28;20051;-62
2022/07/15 09:56:26;;;;;;;1.58;0.50;;;;;;;19.86;51.79;98135.59;5056878;28;20072;-62
2022/07/15 09:58:54;;;;;;;1.08;0.60;;;;;;;20.07;52.31;98128.94;5058975;28;20041;-62
2022/07/15 10:01:21;;;;;;;1.33;0.50;;;;;;;20.02;50.93;98127.72;5058877;28;20072;-62
2022/07/15 10:03:54;;;;;;;2.25;0.75;;;;;;;19.99;53.26;98128.88;5058814;28;20146;-62
2022/07/15 10:06:23;;;;;;;1.90;1.00;;;;;;;19.76;52.43;98141.03;5044139;28;20045;-62
2022/07/15 10:08:51;;;;;;;2.30;0.65;;;;;;;19.29;51.55;98138.66;5039039;28;20048;-61
2022/07/15 10:11:18;;;;;;;3.30;0.55;;;;;;;19.24;52.47;98147.09;5055206;28;20049;-62
2022/07/15 10:14:30;;;;;;;1.45;0.57;;;;;;;19.41;49.89;98133.00;5058712;28;20125;-61
2022/07/15 10:17:23;;;;;;;0.82;0.40;;;;;;;19.64;49.84;98136.06;5051501;28;20056;-62
2022/07/15 10:20:06;;;;;;;;;;;;;;;19.69;50.40;98131.09;5049591;28;21477;-63
2022/07/15 10:22:55;;;;;;;0.52;0.30;;;;;;;20.11;49.98;98122.28;4992285;28;20309;-61
2022/07/15 10:25:32;;;;;;;4.43;0.60;;;;;;;20.35;49.80;98118.97;4984085;28;20439;-61
2022/07/15 10:28:06;;;;;;;1.00;0.50;;;;;;;20.32;49.88;98136.16;4995872;28;20128;-61
2022/07/15 10:30:34;;;;;;;1.75;0.95;;;;;;;19.94;50.86;98136.50;4992255;28;20109;-62
2022/07/15 10:33:15;;;;;;;2.08;0.73;;;;;;;19.80;51.02;98145.06;4993786;28;20461;-63
2022/07/15 10:35:45;;;;;;;2.30;0.90;;;;;;;19.88;50.19;98142.47;4997040;28;20054;-62
2022/07/15 10:38:31;;;;;;;6.22;0.80;;;;;;;19.98;49.18;98137.03;4989318;28;20452;-61
2022/07/15 10:41:06;;;;;;;1.58;0.60;;;;;;;20.06;50.25;98143.28;4991486;28;20046;-62
2022/07/15 10:43:46;;;;;;;5.13;0.68;;;;;;;20.12;50.44;98137.31;4990106;28;20055;-62
2022/07/15 10:46:23;;;;;;;0.47;0.47;;;;;;;20.14;50.08;98143.34;4992418;28;20058;-63
2022/07/15 10:48:51;;;;;;;1.88;0.50;;;;;;;20.18;48.92;98138.56;4992967;28;20043;-63
2022/07/15 10:51:44;;;;;;;1.98;0.75;;;;;;;20.38;49.00;98132.03;4996216;28;20058;-62
2022/07/15 10:54:48;;;;;;;2.72;0.73;;;;;;;20.86;48.38;98126.97;4983311;28;20105;-61
2022/07/15 10:57:20;;;;;;;1.35;0.73;;;;;;;20.95;50.03;98117.19;4985572;28;20065;-62
2022/07/15 10:59:56;;;;;;;2.60;0.60;;;;;;;21.06;48.92;98132.94;5006300;28;20045;-62
2022/07/15 11:02:26;;;;;;;2.42;0.60;;;;;;;20.92;49.61;98134.34;5048246;28;20041;-63
2022/07/15 11:05:19;;;;;;;3.83;0.40;;;;;;;20.20;49.49;98137.44;5056721;28;20052;-62
2022/07/15 11:07:46;;;;;;;2.38;0.60;;;;;;;19.71;51.79;98143.28;5057443;28;20049;-62
2022/07/15 11:10:21;;;;;;;1.55;0.50;;;;;;;19.73;50.42;98143.16;5056966;28;20133;-63
2022/07/15 11:13:05;;;;;;;1.88;0.93;;;;;;;20.17;51.26;98132.38;5055377;28;20440;-62
2022/07/15 11:15:34;;;;;;;0.32;0.32;;;;;;;20.46;50.38;98138.28;5056450;28;20127;-63
2022/07/15 11:18:03;;;;;;;2.00;0.90;;;;;;;20.39;50.21;98129.22;5057014;28;20127;-63
2022/07/15 11:20:42;;;;;;;4.00;0.60;;;;;;;20.50;50.16;98126.28;5057000;28;20048;-62
2022/07/15 11:23:09;;;;;;;0.68;0.30;;;;;;;20.62;50.59;98127.66;5057251;28;20045;-63
2022/07/15 11:25:40;;;;;;;2.00;0.50;;;;;;;20.38;48.73;98124.84;5055704;28;20041;-62
2022/07/15 11:28:10;;;;;;;1.02;0.40;;;;;;;20.05;50.15;98138.91;5053027;28;20041;-62
2022/07/15 11:30:41;;;;;;;1.15;0.50;;;;;;;19.74;49.77;98145.66;5054286;28;20360;-62
2022/07/15 11:33:12;;;;;;;1.42;0.50;;;;;;;19.87;49.09;98146.13;5054458;28;20110;-63
2022/07/15 11:35:45;;;;;;;1.65;0.68;;;;;;;20.29;48.29;98131.13;5054861;28;20318;-62
2022/07/15 11:38:14;;;;;;;2.03;1.15;;;;;;;20.69;46.79;98126.03;5052293;28;20048;-63
2022/07/15 11:46:19;;;;;;;1.23;0.38;;;;;;;20.28;46.40;98137.47;5056381;28;20041;-62
2022/07/15 11:48:47;;;;;;;2.75;1.23;;;;;;;20.26;47.79;98149.31;5054370;28;20135;-61
2022/07/15 11:51:14;;;;;;;1.15;0.65;;;;;;;20.14;46.01;98148.69;5053395;28;20067;-62
2022/07/15 11:53:44;;;;;;;2.17;0.90;;;;;;;19.89;47.17;98145.94;5049867;28;20128;-62
2022/07/15 11:56:15;;;;;;;3.08;1.33;;;;;;;19.56;48.28;98155.50;5049195;28;20088;-62
2022/07/15 11:58:45;;;;;;;2.05;0.50;;;;;;;19.43;50.25;98156.84;5052402;28;20039;-62
2022/07/15 12:01:15;;;;;;;1.80;0.60;;;;;;;19.42;49.47;98156.00;5050392;28;20126;-62
2022/07/15 12:03:45;;;;;;;1.48;0.40;;;;;;;19.65;48.75;98151.94;5056577;28;20135;-62
2022/07/15 12:06:16;;;;;;;1.77;0.52;;;;;;;20.01;49.62;98150.91;5053562;28;20083;-62
2022/07/15 12:08:46;;;;;;;1.20;0.40;;;;;;;19.91;47.13;98155.53;5055298;28;20455;-62
2022/07/15 12:11:22;;;;;;;2.70;0.57;;;;;;;19.90;46.57;98161.81;5056497;28;20367;-62
2022/07/15 12:13:53;;;;;;;2.53;0.63;;;;;;;20.03;46.47;98148.94;5056186;28;20428;-62
2022/07/15 12:16:25;;;;;;;2.05;0.93;;;;;;;19.90;48.76;98147.66;5054606;28;20044;-62
2022/07/15 12:18:54;;;;;;;1.52;0.55;;;;;;;19.70;47.52;98152.31;5054655;28;20052;-62
2022/07/15 12:21:22;;;;;;;1.42;0.57;;;;;;;19.48;47.48;98155.41;5054644;28;20045;-62